Time;durP1;ratioP1;P1;durP2;ratioP2;P2;SDS_P1;SDS_P2;PMS_P1;PMS_P2;Temp;Humidity;BMP_temperature;BMP_pressure;BME280_temperature;BME280_humidity;BME280_pressure;Samples;Min_cycle;Max_cycle;Signal;HPM_P1;HPM_P2
2023/05/30 00:01:18;;;;;;;6.10;5.17;;;17.20;1.00;;;;;;5118045;28;20763;-48
2023/05/30 00:03:44;;;;;;;5.30;4.80;;;17.20;1.00;;;;;;5118130;28;20465;-47
2023/05/30 00:06:11;;;;;;;7.87;5.00;;;17.20;1.00;;;;;;5118534;28;20410;-48
2023/05/30 00:08:37;;;;;;;5.97;5.33;;;17.20;1.00;;;;;;5118097;28;20452;-49
2023/05/30 00:11:02;;;;;;;6.27;5.23;;;17.10;1.00;;;;;;5118224;28;20544;-49
2023/05/30 00:13:28;;;;;;;6.20;4.90;;;17.10;1.00;;;;;;5117656;28;20426;-49
2023/05/30 00:15:56;;;;;;;6.80;5.20;;;17.20;1.00;;;;;;5118148;28;20545;-47
2023/05/30 00:18:22;;;;;;;5.20;4.70;;;17.20;1.00;;;;;;5100059;28;20182;-48
2023/05/30 00:20:48;;;;;;;6.37;4.93;;;17.20;1.00;;;;;;5117673;28;20762;-47
2023/05/30 00:23:15;;;;;;;5.27;4.77;;;17.20;1.00;;;;;;5116105;28;20306;-47
2023/05/30 00:25:40;;;;;;;6.77;5.73;;;17.20;1.00;;;;;;5117322;28;20184;-48
2023/05/30 00:28:07;;;;;;;6.50;5.23;;;17.30;1.00;;;;;;5117078;28;20428;-48
2023/05/30 00:30:33;;;;;;;5.97;4.80;;;17.30;1.00;;;;;;5117686;28;20179;-47
2023/05/30 00:32:59;;;;;;;5.10;4.60;;;17.30;1.00;;;;;;5117739;28;20429;-47
2023/05/30 00:35:25;;;;;;;5.50;5.07;;;17.30;1.00;;;;;;5117643;28;20429;-49
2023/05/30 00:37:52;;;;;;;5.37;4.73;;;17.20;1.00;;;;;;5117406;28;20518;-48
2023/05/30 00:40:18;;;;;;;9.93;5.57;;;17.20;1.00;;;;;;5117479;28;20433;-48
2023/05/30 00:42:43;;;;;;;6.03;5.40;;;17.10;1.00;;;;;;5116817;28;20234;-46
2023/05/30 00:45:09;;;;;;;5.93;4.90;;;17.10;1.00;;;;;;5115930;28;20553;-46
2023/05/30 00:47:35;;;;;;;7.10;4.47;;;17.00;1.00;;;;;;5116464;28;20488;-47
2023/05/30 00:50:01;;;;;;;4.77;4.37;;;16.90;1.00;;;;;;5099395;28;20634;-51
2023/05/30 00:52:28;;;;;;;4.90;4.40;;;16.90;1.00;;;;;;5098586;28;20425;-48
2023/05/30 00:54:54;;;;;;;8.43;5.70;;;16.80;1.00;;;;;;5098614;28;20172;-47
2023/05/30 00:57:20;;;;;;;5.77;5.13;;;16.80;1.00;;;;;;5095137;28;20813;-48
2023/05/30 00:59:46;;;;;;;5.80;4.80;;;16.80;1.00;;;;;;5095466;28;20434;-46
2023/05/30 01:02:12;;;;;;;6.03;4.63;;;16.80;1.00;;;;;;5095924;28;20411;-48
2023/05/30 01:04:37;;;;;;;5.67;4.70;;;16.80;1.00;;;;;;5096545;28;20591;-48
2023/05/30 01:07:04;;;;;;;6.40;5.43;;;16.80;1.00;;;;;;5097489;28;20188;-47
2023/05/30 01:09:30;;;;;;;7.83;5.30;;;16.80;1.00;;;;;;5096882;28;20421;-47
2023/05/30 01:12:47;;;;;;;6.70;5.30;;;16.70;1.00;;;;;;5095329;28;20430;-49
2023/05/30 01:15:27;;;;;;;6.10;4.77;;;16.80;1.00;;;;;;5062507;28;20204;-47
2023/05/30 01:18:04;;;;;;;5.47;4.60;;;16.70;1.00;;;;;;5095193;28;20584;-48
2023/05/30 01:20:38;;;;;;;5.80;5.17;;;16.70;1.00;;;;;;5096412;28;20445;-48
2023/05/30 01:23:23;;;;;;;6.60;5.90;;;16.70;1.00;;;;;;5095400;28;20473;-48
2023/05/30 01:25:59;;;;;;;5.80;4.80;;;16.60;1.00;;;;;;5096133;28;20434;-47
2023/05/30 01:28:28;;;;;;;5.73;4.90;;;16.70;1.00;;;;;;5096352;28;20418;-48
2023/05/30 01:30:56;;;;;;;4.90;4.40;;;16.60;1.00;;;;;;5096223;28;20405;-47
2023/05/30 01:33:22;;;;;;;6.03;5.43;;;16.50;1.00;;;;;;5095884;28;20901;-47
2023/05/30 01:35:48;;;;;;;6.20;5.13;;;16.50;1.00;;;;;;5095450;28;20502;-47
2023/05/30 01:38:14;;;;;;;6.10;5.40;;;16.50;1.00;;;;;;5096835;28;20267;-50
2023/05/30 01:40:57;;;;;;;8.10;5.33;;;16.50;1.00;;;;;;5095546;28;20421;-46
2023/05/30 01:43:50;;;;;;;7.70;5.60;;;16.50;1.00;;;;;;5095585;28;20880;-47
2023/05/30 01:46:36;;;;;;;5.43;4.80;;;16.50;1.00;;;;;;5096109;28;20418;-48
2023/05/30 01:49:40;;;;;;;6.27;5.07;;;16.40;1.00;;;;;;5095275;28;20430;-47
2023/05/30 01:52:12;;;;;;;5.63;4.70;;;16.50;1.00;;;;;;5096409;28;20414;-46
2023/05/30 01:54:41;;;;;;;5.77;4.60;;;16.50;1.00;;;;;;5095671;28;20479;-47
2023/05/30 01:57:12;;;;;;;7.07;5.17;;;16.50;1.00;;;;;;5108561;28;20457;-47
2023/05/30 01:59:39;;;;;;;6.90;5.03;;;16.60;1.00;;;;;;5116815;28;20425;-47
2023/05/30 02:02:05;;;;;;;7.57;5.27;;;16.60;1.00;;;;;;5097658;28;20433;-49
2023/05/30 02:04:31;;;;;;;5.67;4.33;;;16.60;1.00;;;;;;5118294;28;20800;-50
2023/05/30 02:06:57;;;;;;;6.30;5.03;;;16.60;1.00;;;;;;5136571;27;20434;-49
2023/05/30 02:09:24;;;;;;;5.97;5.37;;;16.60;1.00;;;;;;5139572;27;20201;-49
2023/05/30 02:11:49;;;;;;;8.40;4.87;;;16.60;1.00;;;;;;5138934;27;20179;-51
2023/05/30 02:14:15;;;;;;;6.10;5.00;;;16.70;1.00;;;;;;5128367;27;20802;-48
2023/05/30 02:16:41;;;;;;;6.57;4.47;;;16.70;1.00;;;;;;5140977;27;20179;-47
2023/05/30 02:19:06;;;;;;;5.87;4.50;;;16.70;1.00;;;;;;5140534;27;20706;-51
2023/05/30 02:21:32;;;;;;;6.97;4.60;;;16.70;1.00;;;;;;5140616;27;20175;-48
2023/05/30 02:23:58;;;;;;;5.27;4.60;;;16.60;1.00;;;;;;5140547;27;20249;-48
2023/05/30 02:26:27;;;;;;;8.33;5.73;;;16.60;1.00;;;;;;5139270;27;20428;-49
2023/05/30 02:28:53;;;;;;;5.13;4.40;;;16.60;1.00;;;;;;5140684;27;20421;-48
2023/05/30 02:31:19;;;;;;;6.20;5.17;;;16.60;1.00;;;;;;5140291;27;20448;-48
2023/05/30 02:33:44;;;;;;;5.03;4.53;;;16.60;1.00;;;;;;5140268;27;20585;-48
2023/05/30 02:36:10;;;;;;;5.03;4.53;;;16.60;1.00;;;;;;5140285;27;20240;-48
2023/05/30 02:38:35;;;;;;;5.33;4.33;;;16.60;1.00;;;;;;5140652;27;20202;-47
2023/05/30 02:41:01;;;;;;;5.20;4.70;;;16.60;1.00;;;;;;5140628;27;20201;-48
2023/05/30 02:43:27;;;;;;;5.60;4.70;;;16.60;1.00;;;;;;5140028;27;20278;-52
2023/05/30 02:45:52;;;;;;;6.77;5.17;;;16.60;1.00;;;;;;5139900;27;20554;-49
2023/05/30 02:48:19;;;;;;;5.30;4.50;;;16.60;1.00;;;;;;5138289;27;20168;-48
2023/05/30 02:50:44;;;;;;;7.00;5.40;;;16.60;1.00;;;;;;5135279;27;20179;-47
2023/05/30 02:53:16;;;;;;;7.20;5.20;;;16.50;1.00;;;;;;5140082;27;20879;-48
2023/05/30 02:55:42;;;;;;;4.70;4.30;;;16.50;1.00;;;;;;5137753;27;20252;-53
2023/05/30 02:58:08;;;;;;;5.37;4.10;;;16.40;1.00;;;;;;5139749;27;20428;-49
2023/05/30 03:00:35;;;;;;;6.00;5.03;;;16.40;1.00;;;;;;5139490;27;20442;-50
2023/05/30 03:03:00;;;;;;;5.63;4.80;;;16.40;1.00;;;;;;5140115;27;20428;-48
2023/05/30 03:05:26;;;;;;;5.83;5.33;;;16.40;1.00;;;;;;5139599;27;20495;-48
2023/05/30 03:07:52;;;;;;;6.10;5.37;;;16.40;1.00;;;;;;5139587;27;20175;-48
2023/05/30 03:10:17;;;;;;;5.43;4.90;;;16.40;1.00;;;;;;5139446;27;20182;-48
2023/05/30 03:12:43;;;;;;;6.20;5.17;;;16.30;1.00;;;;;;5139842;27;20256;-49
2023/05/30 03:15:09;;;;;;;5.63;5.03;;;16.30;1.00;;;;;;5139694;27;20209;-49
2023/05/30 03:17:35;;;;;;;5.60;4.87;;;16.30;1.00;;;;;;5139550;27;20814;-48
2023/05/30 03:20:00;;;;;;;4.70;4.17;;;16.20;1.00;;;;;;5138931;27;20209;-47
2023/05/30 03:22:27;;;;;;;6.13;4.37;;;16.10;1.00;;;;;;5139438;27;20184;-47
2023/05/30 03:24:53;;;;;;;6.50;4.83;;;16.10;1.00;;;;;;5139015;27;20210;-48
2023/05/30 03:27:19;;;;;;;8.50;5.07;;;16.10;1.00;;;;;;5138022;27;20427;-48
2023/05/30 03:29:45;;;;;;;6.17;5.30;;;16.10;1.00;;;;;;5138631;27;20198;-48
2023/05/30 03:32:10;;;;;;;5.33;4.43;;;16.00;1.00;;;;;;5139221;27;20421;-51
2023/05/30 03:34:36;;;;;;;5.70;4.40;;;16.00;1.00;;;;;;5137728;27;20432;-47
2023/05/30 03:37:02;;;;;;;6.20;4.73;;;16.00;1.00;;;;;;5137867;27;20543;-48
2023/05/30 03:39:28;;;;;;;5.77;5.27;;;16.00;1.00;;;;;;5136624;27;20465;-46
2023/05/30 03:41:53;;;;;;;5.97;5.07;;;16.00;1.00;;;;;;5138505;27;20171;-46
2023/05/30 03:44:21;;;;;;;7.40;4.60;;;16.00;1.00;;;;;;5138354;27;20195;-49
2023/05/30 03:46:47;;;;;;;5.80;4.83;;;15.90;1.00;;;;;;5138487;27;20553;-46
2023/05/30 03:49:13;;;;;;;5.40;4.90;;;15.90;1.00;;;;;;5139077;27;20427;-50
2023/05/30 03:51:38;;;;;;;9.13;5.60;;;15.80;1.00;;;;;;5138898;27;20179;-49
2023/05/30 03:54:04;;;;;;;6.60;5.47;;;15.80;1.00;;;;;;5136248;27;20230;-46
2023/05/30 03:56:29;;;;;;;5.20;4.43;;;15.80;1.00;;;;;;5138456;27;20171;-48
2023/05/30 03:58:55;;;;;;;5.50;4.87;;;15.80;1.00;;;;;;5137921;27;20171;-47
2023/05/30 04:01:21;;;;;;;6.57;5.60;;;15.90;1.00;;;;;;5119926;27;20179;-47
2023/05/30 04:03:46;;;;;;;6.27;5.40;;;15.90;1.00;;;;;;5138539;27;20217;-47
2023/05/30 04:06:12;;;;;;;6.27;4.73;;;16.00;1.00;;;;;;5138324;27;20440;-49
2023/05/30 04:08:39;;;;;;;5.80;5.20;;;16.00;1.00;;;;;;5120777;27;20174;-48
2023/05/30 04:11:06;;;;;;;6.70;5.53;;;16.00;1.00;;;;;;5138398;27;20412;-46
2023/05/30 04:13:31;;;;;;;5.83;5.23;;;16.10;1.00;;;;;;5118647;27;20435;-48
2023/05/30 04:15:59;;;;;;;6.73;5.73;;;16.10;1.00;;;;;;5137456;27;20425;-47
2023/05/30 04:18:24;;;;;;;6.40;5.20;;;16.20;1.00;;;;;;5101382;27;20472;-48
2023/05/30 04:20:50;;;;;;;5.83;4.83;;;16.20;1.00;;;;;;5135719;27;20507;-46
2023/05/30 04:23:16;;;;;;;5.43;4.73;;;16.20;1.00;;;;;;5136842;27;20210;-48
2023/05/30 04:25:44;;;;;;;6.63;5.20;;;16.20;1.00;;;;;;5136526;27;20480;-47
2023/05/30 04:28:16;;;;;;;5.77;5.20;;;16.20;1.00;;;;;;5137200;27;20556;-51
2023/05/30 04:30:48;;;;;;;7.47;6.07;;;16.10;1.00;;;;;;5135571;27;20420;-46
2023/05/30 04:33:15;;;;;;;10.10;5.27;;;16.10;1.00;;;;;;5134549;27;20416;-47
2023/05/30 04:35:42;;;;;;;6.60;5.63;;;16.00;1.00;;;;;;5135692;27;20428;-47
2023/05/30 04:38:09;;;;;;;6.20;5.37;;;16.00;1.00;;;;;;5135527;27;20492;-46
2023/05/30 04:40:36;;;;;;;7.87;5.40;;;16.00;1.00;;;;;;5117237;27;20456;-46
2023/05/30 04:43:02;;;;;;;8.37;6.47;;;16.00;1.00;;;;;;5134676;27;20451;-48
2023/05/30 04:45:29;;;;;;;5.90;5.30;;;16.00;1.00;;;;;;5117733;27;20425;-47
2023/05/30 04:47:55;;;;;;;5.80;5.20;;;16.00;1.00;;;;;;5135016;27;20815;-48
2023/05/30 04:50:21;;;;;;;5.53;5.03;;;16.00;1.00;;;;;;5118673;27;20491;-50
2023/05/30 04:52:47;;;;;;;5.30;4.80;;;16.00;1.00;;;;;;5137361;27;20206;-48
2023/05/30 04:55:12;;;;;;;6.50;5.80;;;16.10;1.00;;;;;;5135117;27;20235;-49
2023/05/30 04:57:38;;;;;;;7.00;5.53;;;16.20;1.00;;;;;;5135703;27;20262;-49
2023/05/30 05:00:10;;;;;;;7.53;5.23;;;16.20;1.00;;;;;;5136921;27;20261;-47
2023/05/30 05:02:38;;;;;;;5.90;4.90;;;16.30;1.00;;;;;;5136589;27;20447;-48
2023/05/30 05:05:05;;;;;;;6.50;5.00;;;16.30;1.00;;;;;;5136394;27;20472;-50
2023/05/30 05:07:31;;;;;;;5.97;5.30;;;16.30;1.00;;;;;;5118393;27;20428;-47
2023/05/30 05:09:56;;;;;;;7.50;5.13;;;16.30;1.00;;;;;;5134561;27;20508;-48
2023/05/30 05:12:22;;;;;;;7.77;4.70;;;16.40;1.00;;;;;;5134036;27;20412;-48
2023/05/30 05:14:48;;;;;;;6.33;5.73;;;16.40;1.00;;;;;;5132733;27;20213;-48
2023/05/30 05:17:13;;;;;;;7.43;5.27;;;16.50;1.00;;;;;;5097102;28;20565;-49
2023/05/30 05:19:39;;;;;;;6.93;5.70;;;16.50;1.00;;;;;;5131522;27;20183;-48
2023/05/30 05:22:05;;;;;;;6.13;5.10;;;16.60;1.00;;;;;;5134782;27;20191;-47
2023/05/30 05:24:31;;;;;;;5.73;4.97;;;16.50;1.00;;;;;;5133220;27;20206;-48
2023/05/30 05:26:57;;;;;;;6.60;5.30;;;16.50;1.00;;;;;;5135240;27;20702;-49
2023/05/30 05:29:23;;;;;;;6.43;5.40;;;16.60;1.00;;;;;;5133833;28;20193;-48
2023/05/30 05:31:48;;;;;;;7.83;5.57;;;16.70;1.00;;;;;;5132900;28;20420;-47
2023/05/30 05:34:14;;;;;;;7.13;5.60;;;16.80;1.00;;;;;;5133464;28;20190;-47
2023/05/30 05:36:42;;;;;;;6.50;4.67;;;16.90;1.00;;;;;;5132917;28;20250;-53
2023/05/30 05:39:08;;;;;;;6.53;5.00;;;16.90;1.00;;;;;;5133563;28;20501;-49
2023/05/30 05:41:35;;;;;;;6.93;5.53;;;17.00;1.00;;;;;;5134636;28;20416;-47
2023/05/30 05:44:01;;;;;;;5.57;5.00;;;17.10;1.00;;;;;;5138298;27;20506;-47
2023/05/30 05:46:27;;;;;;;6.33;5.70;;;17.20;1.00;;;;;;5138946;27;20452;-47
2023/05/30 05:48:54;;;;;;;7.47;6.00;;;17.30;1.00;;;;;;5139624;27;20428;-48
2023/05/30 05:51:20;;;;;;;8.50;5.90;;;17.40;1.00;;;;;;5138587;27;20287;-48
2023/05/30 05:53:46;;;;;;;7.07;5.47;;;17.40;1.00;;;;;;5137111;27;20440;-46
2023/05/30 05:56:12;;;;;;;6.50;5.40;;;17.50;1.00;;;;;;5117971;27;20853;-50
2023/05/30 05:58:37;;;;;;;8.60;6.73;;;17.50;1.00;;;;;;5100219;27;20191;-48
2023/05/30 06:01:03;;;;;;;6.70;5.97;;;17.60;1.00;;;;;;5135584;27;20182;-47
2023/05/30 06:03:28;;;;;;;7.00;5.30;;;17.70;1.00;;;;;;5135475;27;20209;-53
2023/05/30 06:05:54;;;;;;;6.90;5.23;;;17.80;1.00;;;;;;5136423;27;20179;-47
2023/05/30 06:08:20;;;;;;;8.03;5.20;;;17.90;1.00;;;;;;5136291;27;20255;-49
2023/05/30 06:10:45;;;;;;;7.83;4.83;;;17.80;1.00;;;;;;5137052;27;20211;-49
2023/05/30 06:13:11;;;;;;;5.93;5.33;;;17.90;1.00;;;;;;5136580;27;20182;-49
2023/05/30 06:15:36;;;;;;;6.73;5.30;;;18.10;1.00;;;;;;5137765;27;20179;-51
2023/05/30 06:18:03;;;;;;;7.43;6.10;;;18.20;1.00;;;;;;5136924;27;20175;-48
2023/05/30 06:20:29;;;;;;;6.13;5.23;;;18.30;1.00;;;;;;5136425;27;20591;-46
2023/05/30 06:22:54;;;;;;;5.90;4.67;;;18.30;1.00;;;;;;5137468;27;20467;-49
2023/05/30 06:25:20;;;;;;;7.20;6.10;;;18.50;1.00;;;;;;5137561;27;20202;-50
2023/05/30 06:27:45;;;;;;;6.30;4.27;;;18.50;1.00;;;;;;5136914;27;20198;-47
2023/05/30 06:30:11;;;;;;;6.30;5.40;;;18.60;1.00;;;;;;5139379;27;20175;-49
2023/05/30 06:32:37;;;;;;;5.73;4.37;;;18.60;1.00;;;;;;5139626;27;20183;-48
2023/05/30 06:35:02;;;;;;;7.60;5.00;;;18.80;1.00;;;;;;5140056;27;20568;-46
2023/05/30 06:37:28;;;;;;;6.10;5.10;;;18.90;1.00;;;;;;5140069;27;20244;-48
2023/05/30 06:39:54;;;;;;;4.97;4.47;;;19.10;1.00;;;;;;5138495;27;20453;-49
2023/05/30 06:42:20;;;;;;;6.67;5.40;;;19.20;1.00;;;;;;5137988;27;20179;-48
2023/05/30 06:44:46;;;;;;;5.87;5.27;;;19.40;1.00;;;;;;5138138;27;20207;-48
2023/05/30 06:47:11;;;;;;;7.67;5.27;;;19.50;1.00;;;;;;5136479;27;20429;-48
2023/05/30 06:49:37;;;;;;;5.77;5.13;;;19.60;1.00;;;;;;5137100;27;20179;-47
2023/05/30 06:52:02;;;;;;;6.63;5.93;;;19.70;1.00;;;;;;5136597;27;20202;-48
2023/05/30 06:54:28;;;;;;;6.50;4.17;;;19.70;1.00;;;;;;5134911;27;20462;-47
2023/05/30 06:56:54;;;;;;;5.10;4.67;;;19.70;1.00;;;;;;5137231;27;20184;-50
2023/05/30 06:59:19;;;;;;;6.47;4.70;;;19.70;1.00;;;;;;5136918;27;20187;-47
2023/05/30 07:01:46;;;;;;;6.73;5.40;;;19.90;1.00;;;;;;5136944;27;20211;-47
2023/05/30 07:04:12;;;;;;;6.97;5.53;;;20.10;1.00;;;;;;5135270;27;20226;-50
2023/05/30 07:06:37;;;;;;;7.33;4.67;;;20.20;1.00;;;;;;5118203;27;20429;-52
2023/05/30 07:09:03;;;;;;;6.27;4.80;;;20.40;1.00;;;;;;5134686;27;20174;-51
2023/05/30 07:11:28;;;;;;;5.70;4.83;;;20.50;1.00;;;;;;5135765;27;20175;-49
2023/05/30 07:13:54;;;;;;;7.03;5.57;;;20.60;1.00;;;;;;5135673;27;20270;-50
2023/05/30 07:16:20;;;;;;;6.40;5.00;;;20.60;1.00;;;;;;5134767;27;20247;-49
2023/05/30 07:18:45;;;;;;;6.50;5.00;;;20.40;1.00;;;;;;5134347;27;20225;-50
2023/05/30 07:21:11;;;;;;;7.13;5.10;;;20.50;1.00;;;;;;5118129;27;20168;-50
2023/05/30 07:23:36;;;;;;;6.80;5.50;;;20.70;1.00;;;;;;5119112;27;20211;-49
2023/05/30 07:26:02;;;;;;;5.10;4.53;;;20.80;1.00;;;;;;5137564;27;20190;-48
2023/05/30 07:28:28;;;;;;;6.93;5.30;;;20.90;1.00;;;;;;5135843;27;20175;-48
2023/05/30 07:30:53;;;;;;;7.83;5.10;;;21.00;1.00;;;;;;5134860;27;20163;-49
2023/05/30 07:33:19;;;;;;;7.43;6.00;;;21.10;1.00;;;;;;5137402;27;20407;-50
2023/05/30 07:35:45;;;;;;;7.63;5.37;;;21.10;1.00;;;;;;5117334;27;20198;-48
2023/05/30 07:38:11;;;;;;;6.90;5.00;;;21.30;1.00;;;;;;5134835;27;20590;-49
2023/05/30 07:40:36;;;;;;;7.00;5.30;;;21.30;1.00;;;;;;5116661;27;20456;-48
2023/05/30 07:43:02;;;;;;;8.93;5.67;;;21.50;1.00;;;;;;5132533;27;20178;-52
2023/05/30 07:45:28;;;;;;;7.60;5.30;;;21.50;1.00;;;;;;5134711;27;20167;-49
2023/05/30 07:47:53;;;;;;;6.37;4.63;;;21.60;1.00;;;;;;5135879;27;20195;-49
2023/05/30 07:50:19;;;;;;;6.93;5.93;;;21.70;1.00;;;;;;5135404;27;20540;-50
2023/05/30 07:52:45;;;;;;;6.63;5.17;;;21.70;1.00;;;;;;5137512;27;20178;-49
2023/05/30 07:55:10;;;;;;;10.67;5.30;;;21.90;1.00;;;;;;5136035;27;20244;-48
2023/05/30 07:57:36;;;;;;;6.23;4.60;;;22.10;1.00;;;;;;5135543;27;20416;-50
2023/05/30 08:00:06;;;;;;;7.10;5.50;;;22.30;1.00;;;;;;5135115;27;20525;-48
2023/05/30 08:02:31;;;;;;;8.40;5.23;;;22.40;1.00;;;;;;5134340;27;20179;-49
2023/05/30 08:04:57;;;;;;;6.10;4.70;;;22.50;1.00;;;;;;5133706;27;20459;-48
2023/05/30 08:07:22;;;;;;;7.53;5.80;;;22.60;1.00;;;;;;5134760;27;20191;-51
2023/05/30 08:09:48;;;;;;;6.60;4.80;;;22.70;1.00;;;;;;5134627;27;20163;-48
2023/05/30 08:12:18;;;;;;;8.53;4.80;;;22.70;1.00;;;;;;5135944;27;20167;-47
2023/05/30 08:14:44;;;;;;;5.70;5.10;;;22.70;1.00;;;;;;5134009;27;20183;-48
2023/05/30 08:17:15;;;;;;;5.60;4.70;;;22.80;1.00;;;;;;5116240;27;20432;-51
2023/05/30 08:19:42;;;;;;;7.23;5.40;;;23.00;1.00;;;;;;5135270;27;20671;-49
2023/05/30 08:22:08;;;;;;;5.50;5.00;;;23.30;1.00;;;;;;5132329;27;20424;-47
2023/05/30 08:24:35;;;;;;;5.93;5.20;;;23.50;1.00;;;;;;5130207;27;21049;-46
2023/05/30 08:27:01;;;;;;;7.63;5.33;;;23.50;1.00;;;;;;5132104;27;20424;-48
2023/05/30 08:29:27;;;;;;;6.67;5.37;;;23.70;1.00;;;;;;5130614;27;20417;-49
2023/05/30 08:31:53;;;;;;;6.20;5.50;;;23.90;1.00;;;;;;5132337;27;20420;-47
2023/05/30 08:34:18;;;;;;;7.37;5.63;;;24.00;1.00;;;;;;5113264;27;20864;-49
2023/05/30 08:36:44;;;;;;;5.73;4.97;;;24.20;1.00;;;;;;5131451;27;20171;-50
2023/05/30 08:39:12;;;;;;;7.63;5.63;;;24.50;1.00;;;;;;5131855;27;20670;-51
2023/05/30 08:41:38;;;;;;;7.80;5.70;;;24.90;1.00;;;;;;5114479;27;20826;-47
2023/05/30 08:44:03;;;;;;;7.03;5.50;;;25.10;1.00;;;;;;5115780;27;20563;-48
2023/05/30 08:46:29;;;;;;;6.23;4.90;;;25.20;1.00;;;;;;5133805;27;20182;-48
2023/05/30 08:48:56;;;;;;;7.70;6.03;;;25.00;1.00;;;;;;5133512;27;20182;-51
2023/05/30 08:51:24;;;;;;;7.93;5.10;;;25.20;1.00;;;;;;5132776;27;20182;-51
2023/05/30 08:53:55;;;;;;;7.30;5.30;;;25.20;1.00;;;;;;5117291;27;20485;-50
2023/05/30 08:56:30;;;;;;;5.60;4.83;;;25.50;1.00;;;;;;5116851;27;20468;-48
2023/05/30 08:58:57;;;;;;;6.17;5.13;;;25.80;1.00;;;;;;5117387;27;20526;-49
2023/05/30 09:01:23;;;;;;;6.20;5.30;;;25.90;1.00;;;;;;5128964;27;20834;-50
2023/05/30 09:03:49;;;;;;;6.70;5.37;;;25.90;1.00;;;;;;5125719;27;20463;-47
2023/05/30 09:06:16;;;;;;;7.13;5.30;;;26.00;1.00;;;;;;5106851;27;20252;-49
2023/05/30 09:08:43;;;;;;;6.07;5.43;;;26.20;1.00;;;;;;5097475;27;20493;-49
2023/05/30 09:11:09;;;;;;;6.70;5.43;;;26.20;1.00;;;;;;5136051;27;20432;-50
2023/05/30 09:13:34;;;;;;;6.50;5.80;;;26.20;1.00;;;;;;5116255;27;20460;-48
2023/05/30 09:16:00;;;;;;;8.43;5.43;;;26.30;1.00;;;;;;5133503;27;20515;-50
2023/05/30 09:18:29;;;;;;;7.47;5.70;;;26.50;1.00;;;;;;5133776;27;20420;-49
2023/05/30 09:20:56;;;;;;;6.97;5.17;;;26.70;1.00;;;;;;5113440;27;20402;-50
2023/05/30 09:23:21;;;;;;;6.27;5.50;;;26.90;1.00;;;;;;5134409;27;20464;-47
2023/05/30 09:25:48;;;;;;;9.27;5.43;;;26.90;1.00;;;;;;5134511;27;20917;-50
2023/05/30 09:28:14;;;;;;;5.57;4.90;;;27.00;1.00;;;;;;5134251;27;20195;-50
2023/05/30 09:30:58;;;;;;;6.27;5.63;;;27.00;1.00;;;;;;5134168;28;20496;-48
2023/05/30 09:33:39;;;;;;;5.90;5.20;;;27.00;1.00;;;;;;5132402;28;20762;-48
2023/05/30 09:36:07;;;;;;;6.27;5.50;;;27.10;1.00;;;;;;5132551;28;20405;-50
2023/05/30 09:38:32;;;;;;;6.77;6.07;;;27.10;1.00;;;;;;5135005;28;20639;-51
2023/05/30 09:41:04;;;;;;;6.97;5.23;;;27.40;1.00;;;;;;5135578;28;20453;-49
2023/05/30 09:43:34;;;;;;;6.80;5.73;;;27.30;1.00;;;;;;5134149;28;20210;-50
2023/05/30 09:46:05;;;;;;;8.70;5.50;;;27.40;1.00;;;;;;5134556;28;20500;-47
2023/05/30 09:48:31;;;;;;;6.60;5.23;;;27.60;1.00;;;;;;5136791;28;20503;-47
2023/05/30 09:51:01;;;;;;;6.30;5.70;;;27.60;1.00;;;;;;5115417;28;20421;-48
2023/05/30 09:53:29;;;;;;;11.07;5.47;;;27.60;1.00;;;;;;5130258;28;20458;-49
2023/05/30 09:55:55;;;;;;;6.43;5.50;;;27.70;1.00;;;;;;5129262;28;20723;-49
2023/05/30 09:58:20;;;;;;;7.77;5.50;;;28.00;1.00;;;;;;5130647;28;20884;-49
2023/05/30 10:00:54;;;;;;;7.57;6.00;;;28.00;1.00;;;;;;5112850;28;20195;-49
2023/05/30 10:03:20;;;;;;;5.90;4.70;;;28.10;1.00;;;;;;5129257;28;20281;-50
2023/05/30 10:05:46;;;;;;;8.10;5.33;;;28.20;1.00;;;;;;5132916;28;20413;-52
2023/05/30 10:08:11;;;;;;;5.90;5.20;;;28.30;1.00;;;;;;5131568;28;20406;-48
2023/05/30 10:10:41;;;;;;;9.30;5.80;;;28.40;1.00;;;;;;5132121;28;20271;-48
2023/05/30 10:13:06;;;;;;;6.80;4.60;;;28.50;1.00;;;;;;5132696;28;20218;-49
2023/05/30 10:15:32;;;;;;;7.30;4.80;;;28.30;1.00;;;;;;5134250;28;20425;-49
2023/05/30 10:18:16;;;;;;;7.47;5.47;;;28.30;1.00;;;;;;5134530;28;20182;-48
2023/05/30 10:20:44;;;;;;;5.10;4.47;;;28.50;1.00;;;;;;5135107;28;20267;-49
2023/05/30 10:23:10;;;;;;;6.20;5.47;;;28.50;1.00;;;;;;5134186;28;20429;-50
2023/05/30 10:25:37;;;;;;;5.23;4.70;;;28.70;1.00;;;;;;5118100;28;20467;-50
2023/05/30 10:28:04;;;;;;;5.63;4.50;;;28.90;1.00;;;;;;5115085;27;20473;-53
2023/05/30 10:30:31;;;;;;;6.20;5.20;;;28.90;1.00;;;;;;5135954;27;20890;-51
2023/05/30 10:33:04;;;;;;;7.83;5.93;;;28.90;1.00;;;;;;5137205;27;20476;-50
2023/05/30 10:35:30;;;;;;;5.73;5.20;;;28.90;1.00;;;;;;5137262;27;20850;-52
2023/05/30 10:37:57;;;;;;;8.33;5.17;;;29.00;1.00;;;;;;5119412;27;20876;-50
2023/05/30 10:40:27;;;;;;;5.47;4.97;;;28.90;1.00;;;;;;5119643;27;20436;-49
2023/05/30 10:43:01;;;;;;;7.37;4.90;;;29.00;1.00;;;;;;5137250;27;20668;-49
2023/05/30 10:45:57;;;;;;;5.43;4.50;;;29.10;1.00;;;;;;5136893;27;20728;-53
2023/05/30 10:48:29;;;;;;;8.10;4.83;;;29.10;1.00;;;;;;5136340;27;20834;-48
2023/05/30 10:50:59;;;;;;;8.33;4.83;;;29.20;1.00;;;;;;5135394;27;20425;-51
2023/05/30 10:53:26;;;;;;;5.03;4.40;;;29.20;1.00;;;;;;5135743;27;20431;-52
2023/05/30 10:55:51;;;;;;;6.80;5.47;;;29.40;1.00;;;;;;5133989;27;20540;-49
2023/05/30 10:58:42;;;;;;;8.20;6.00;;;29.70;1.00;;;;;;5134951;27;20421;-50
2023/05/30 11:01:27;;;;;;;8.90;5.10;;;30.10;1.00;;;;;;5135690;27;20205;-50
2023/05/30 11:04:02;;;;;;;5.90;4.90;;;30.20;1.00;;;;;;5136550;27;20503;-48
2023/05/30 11:06:33;;;;;;;8.03;5.20;;;30.30;1.00;;;;;;5137011;27;20416;-48
2023/05/30 11:09:12;;;;;;;8.07;4.60;;;30.50;1.00;;;;;;5138223;27;20420;-48
2023/05/30 11:11:54;;;;;;;8.13;5.60;;;30.40;1.00;;;;;;5134953;27;20429;-48
2023/05/30 11:14:26;;;;;;;6.80;4.93;;;30.40;1.00;;;;;;5133324;27;20432;-49
2023/05/30 11:16:55;;;;;;;6.00;5.33;;;30.60;1.00;;;;;;5134557;27;20421;-48
2023/05/30 11:19:37;;;;;;;6.00;5.13;;;30.70;1.00;;;;;;5134536;27;20428;-50
2023/05/30 11:22:17;;;;;;;7.13;5.60;;;30.70;1.00;;;;;;5135075;27;20447;-52
2023/05/30 11:24:43;;;;;;;5.53;5.00;;;30.70;1.00;;;;;;5136364;27;20448;-53
2023/05/30 11:27:10;;;;;;;5.40;4.90;;;30.80;1.00;;;;;;5136069;27;20408;-50
2023/05/30 11:29:49;;;;;;;7.00;5.03;;;30.80;1.00;;;;;;5137199;27;20412;-51
2023/05/30 11:32:23;;;;;;;5.37;4.80;;;31.10;1.00;;;;;;5137047;27;20408;-50
2023/05/30 11:35:02;;;;;;;5.50;4.97;;;31.50;1.00;;;;;;5136101;27;20433;-53
2023/05/30 11:37:32;;;;;;;6.23;4.97;;;32.10;1.00;;;;;;5117543;27;21175;-50
2023/05/30 11:39:58;;;;;;;5.47;4.80;;;32.20;1.00;;;;;;5136902;27;20452;-49
2023/05/30 11:42:25;;;;;;;6.40;4.90;;;32.50;1.00;;;;;;5135695;27;20462;-51
2023/05/30 11:44:51;;;;;;;6.50;5.10;;;32.60;1.00;;;;;;5135597;27;20301;-48
2023/05/30 11:47:18;;;;;;;5.50;4.30;;;32.70;1.00;;;;;;5136484;27;20494;-51
2023/05/30 11:49:47;;;;;;;5.60;5.10;;;32.50;1.00;;;;;;5138141;27;20403;-50
2023/05/30 11:52:13;;;;;;;5.67;5.07;;;32.70;1.00;;;;;;5138279;27;20424;-49
2023/05/30 11:54:39;;;;;;;7.30;4.97;;;32.80;1.00;;;;;;5136935;27;20646;-51
2023/05/30 11:57:06;;;;;;;5.80;4.33;;;32.70;1.00;;;;;;5135576;27;20362;-50
2023/05/30 11:59:33;;;;;;;7.57;4.73;;;32.30;1.00;;;;;;5136687;27;20455;-47
2023/05/30 12:01:59;;;;;;;5.83;4.93;;;32.10;1.00;;;;;;5135151;27;20395;-49
2023/05/30 12:04:33;;;;;;;4.97;4.53;;;31.90;1.00;;;;;;5134522;27;20876;-50
2023/05/30 12:07:06;;;;;;;6.23;5.60;;;32.00;1.00;;;;;;5117712;27;20539;-48
2023/05/30 12:09:39;;;;;;;5.30;4.80;;;32.10;1.00;;;;;;5134468;27;20698;-49
2023/05/30 12:12:06;;;;;;;6.30;5.40;;;32.50;1.00;;;;;;5135276;27;20416;-48
2023/05/30 12:14:49;;;;;;;5.77;5.23;;;32.70;1.00;;;;;;5134923;27;20512;-48
2023/05/30 12:17:20;;;;;;;5.40;4.10;;;33.10;1.00;;;;;;5135333;27;20424;-49
2023/05/30 12:19:45;;;;;;;5.20;4.73;;;33.40;1.00;;;;;;5117299;27;20424;-47
2023/05/30 12:22:12;;;;;;;5.60;5.10;;;33.60;1.00;;;;;;5131620;27;20402;-48
2023/05/30 12:24:39;;;;;;;5.50;5.00;;;33.80;1.00;;;;;;5133908;27;20549;-49
2023/05/30 12:27:08;;;;;;;5.90;5.27;;;33.90;1.00;;;;;;5133236;27;20412;-51
2023/05/30 12:29:34;;;;;;;5.60;5.10;;;34.10;1.00;;;;;;5134364;27;20427;-52
2023/05/30 12:32:01;;;;;;;4.83;4.43;;;34.10;1.00;;;;;;5134846;27;20463;-47
2023/05/30 12:34:57;;;;;;;5.10;4.60;;;34.10;1.00;;;;;;5134161;27;20417;-48
2023/05/30 12:37:22;;;;;;;5.10;4.37;;;33.90;1.00;;;;;;5113192;27;20440;-49
2023/05/30 12:39:53;;;;;;;5.03;4.53;;;33.40;1.00;;;;;;5133946;27;20417;-52
2023/05/30 12:42:24;;;;;;;4.90;4.37;;;33.20;1.00;;;;;;5134320;27;20171;-48
2023/05/30 12:44:55;;;;;;;5.20;4.70;;;33.40;1.00;;;;;;5135399;27;20875;-50
2023/05/30 12:47:21;;;;;;;4.90;4.50;;;33.40;1.00;;;;;;5136405;27;20446;-51
2023/05/30 12:49:47;;;;;;;4.70;4.33;;;33.60;1.00;;;;;;5136427;27;20403;-50
2023/05/30 12:52:14;;;;;;;5.60;5.10;;;33.80;1.00;;;;;;5134420;27;20769;-47
2023/05/30 12:54:41;;;;;;;5.70;4.80;;;33.80;1.00;;;;;;5113471;28;20231;-48
2023/05/30 12:57:08;;;;;;;7.87;4.70;;;33.90;1.00;;;;;;5116075;28;20913;-50
2023/05/30 12:59:34;;;;;;;6.50;4.43;;;33.40;1.00;;;;;;5115222;28;20857;-51
2023/05/30 13:01:59;;;;;;;4.90;4.40;;;32.80;1.00;;;;;;5113814;28;20411;-49